Mijn webcam Meer informatie My webcam


Webcam richting Noord-Oost Meer informatie webcam facing north-east


Regen radar Meer informatie rain snow radar


Bezoek onze andere website:

Template documentation
and downloads

And another site



METAR rapporten vliegvelden

   
EHGG - Groningen/Eelde
Gewijzigd: 25-05-2017 00:55
Bewolking  
Bewolking  
   Wind: NW 3.1 m/s
Wind: NW 3.1 m/s
Temperatuur: 12°C
Dauwpunt: 10°C
Vochtigheid: 88%
Barometer: 1024 hPa
Bewolking: Bewolking
Zicht: Meer dan 10 km
Bewolking: Bewolking 800 ft
EHGG 242255Z AUTO 31006KT 270V340 9999 OVC008 12/10 Q1024
EHMA - Schiermonnikoog
Gewijzigd: 25-05-2017 00:55
Bewolking  
Bewolking  
   Wind: Noorden 5.1 m/s
Wind: Noorden 5.1 m/s
Temperatuur: 11°C
Dauwpunt: 10°C
Vochtigheid: 94%
Barometer: 1024 hPa
Bewolking: Bewolking
Zicht: Meer dan 10 km
Bewolking: Grotendeels bewolkt 200 ft,
Bewolking 400 ft
EHMA 242255Z AUTO 35010KT 9999 BKN002 OVC004 11/10 Q1024
EHMG - Terschelling
Gewijzigd: 25-05-2017 00:55
Helder  
Helder  
   Wind: NNW 5.1 m/s
Wind: NNW 5.1 m/s
Temperatuur: 12°C
Dauwpunt: 11°C
Vochtigheid: 94%
Barometer: 1025 hPa
Bewolking: Helder
Zicht: Meer dan 10 km
Bewolking: Helder
EHMG 242255Z AUTO 33010KT 9999 NCD 12/11 Q1025
EHVL - Vlieland
Gewijzigd: 25-05-2017 00:55
Licht bewolkt  
Licht bewolkt  
   Wind: NNW 4.1 m/s
Wind: NNW 4.1 m/s
Temperatuur: 12°C
Dauwpunt: 11°C
Vochtigheid: 94%
Barometer: 1025 hPa
Bewolking: Licht bewolkt
Zicht: Meer dan 10 km
Bewolking: Licht bewolkt 14000 ft
EHVL 242255Z AUTO 33008KT 9999 FEW140 12/11 Q1025 BLU
ETWM - Meppen, Germany
Gewijzigd: 25-05-2017 00:20
  
  
   Wind: NW 1 m/s
Wind: NW 1 m/s
Temperatuur: 13°C
Dauwpunt: 10°C
Vochtigheid: 82%
Barometer: 1024 hPa
Zicht: Meer dan 10 km
ETWM 242220Z AUTO 32002KT 9999 // ////// 13/10 Q1024 ///
 

Script ontwikkeld door  Saratoga-weather.org Aangepast voor de template door  Weerstation Leuven

U vindt ons ook hier:

Het Weer Aktueel

UK Metoffice

European Weather Network

WeatherCloud

Weather Underground

Benelux Weer Netwerk

AWEKAS

WeatherlinkIP

HAMweather, WeatherForYou, PWS Weather

Apparatuur in gebruik:

Weerstation
Davis VP2 Plus

Weerprogramma
Cumulus

Weercomputer
ASUS Eee Box B202

Webleverancier
Antagonist

Davis VP2 Plus

Cumulus

ASUS Eee Box B202

Antagonist